Time;durP1;ratioP1;P1;durP2;ratioP2;P2;SDS_P1;SDS_P2;PMS_P1;PMS_P2;Temp;Humidity;BMP_temperature;BMP_pressure;BME280_temperature;BME280_humidity;BME280_pressure;Samples;Min_cycle;Max_cycle;Signal;HPM_P1;HPM_P2
2021/12/24 00:02:56;;;;;;;5.40;3.33;;;10.90;99.90;;;;;;6211084;28;20975;-82
2021/12/24 00:05:56;;;;;;;4.75;2.85;;;10.80;99.90;;;;;;6229250;28;20076;-81
2021/12/24 00:08:57;;;;;;;3.97;2.88;;;10.80;99.90;;;;;;6204220;28;20033;-81
2021/12/24 00:12:00;;;;;;;5.45;2.83;;;10.80;99.90;;;;;;6194694;28;20033;-81
2021/12/24 00:15:12;;;;;;;3.45;2.80;;;10.80;99.90;;;;;;6195291;28;20445;-81
2021/12/24 00:37:33;;;;;;;4.10;3.05;;;10.70;99.90;;;;;;6238525;28;20052;-80
2021/12/24 00:40:39;;;;;;;3.95;2.80;;;10.60;99.90;;;;;;6234059;28;20036;-81
2021/12/24 00:43:40;;;;;;;3.90;2.90;;;11.10;99.90;;;;;;6210235;28;20036;-79
2021/12/24 00:46:40;;;;;;;4.13;3.10;;;10.70;99.90;;;;;;6209755;28;20435;-81
2021/12/24 00:49:42;;;;;;;4.00;2.92;;;10.50;99.90;;;;;;6210221;28;20041;-80
2021/12/24 00:55:46;;;;;;;4.00;2.90;;;10.90;99.90;;;;;;6226758;28;20480;-81
2021/12/24 00:58:47;;;;;;;4.03;2.90;;;10.60;99.90;;;;;;6193134;28;20034;-80
2021/12/24 01:01:48;;;;;;;3.25;2.75;;;10.60;99.90;;;;;;6222870;28;20059;-80
2021/12/24 01:04:48;;;;;;;3.88;2.75;;;10.50;99.90;;;;;;6202149;28;20714;-80
2021/12/24 01:07:49;;;;;;;4.35;2.60;;;10.40;99.90;;;;;;6209671;28;20029;-80
2021/12/24 01:11:00;;;;;;;6.10;4.22;;;10.30;99.90;;;;;;6230517;28;20075;-81
2021/12/24 01:14:00;;;;;;;3.10;2.80;;;10.20;99.90;;;;;;6233965;28;20041;-81
2021/12/24 01:20:23;;;;;;;5.45;2.92;;;10.10;99.90;;;;;;6227422;28;20525;-80
2021/12/24 01:23:33;;;;;;;3.03;2.72;;;10.00;99.90;;;;;;6235197;28;20061;-80
2021/12/24 01:26:58;;;;;;;3.25;2.90;;;10.00;99.90;;;;;;6219032;28;20067;-80
2021/12/24 01:43:05;;;;;;;3.30;2.78;;;10.60;99.90;;;;;;6248934;28;20030;-81
2021/12/24 01:46:06;;;;;;;4.07;3.00;;;10.00;99.90;;;;;;6224404;28;20493;-80
2021/12/24 01:49:06;;;;;;;3.28;2.70;;;10.10;99.90;;;;;;6237251;28;20036;-80
2021/12/24 01:52:07;;;;;;;3.58;2.90;;;9.90;99.90;;;;;;6221031;28;20032;-81
2021/12/24 01:55:08;;;;;;;3.47;3.03;;;10.40;99.90;;;;;;6237126;28;20036;-79
2021/12/24 01:58:09;;;;;;;2.95;2.67;;;10.20;99.90;;;;;;6253758;28;20487;-80
2021/12/24 02:01:09;;;;;;;3.53;2.80;;;10.10;99.90;;;;;;6236792;28;20029;-81
2021/12/24 02:04:14;;;;;;;3.88;2.67;;;;;;;;;;6237071;28;20076;-81
2021/12/24 02:07:14;;;;;;;3.78;2.58;;;10.10;99.90;;;;;;6237052;28;20075;-81
2021/12/24 02:10:15;;;;;;;3.80;2.70;;;;;;;;;;6232330;28;20033;-80
2021/12/24 02:13:16;;;;;;;3.97;2.55;;;;;;;;;;6247553;28;20476;-81
2021/12/24 02:17:12;;;;;;;3.03;2.33;;;10.40;99.90;;;;;;6243139;28;20036;-81
2021/12/24 02:29:42;;;;;;;3.72;2.60;;;10.30;99.90;;;;;;6237680;28;20037;-80
2021/12/24 02:32:43;;;;;;;4.00;2.78;;;10.30;99.90;;;;;;6236379;28;20462;-81
2021/12/24 02:35:43;;;;;;;4.15;2.67;;;10.30;99.90;;;;;;6227956;28;20053;-80
2021/12/24 02:38:44;;;;;;;3.38;2.85;;;10.30;99.90;;;;;;6219827;28;20112;-80
2021/12/24 02:41:45;;;;;;;3.90;2.67;;;10.30;99.90;;;;;;6233010;28;20033;-80
2021/12/24 02:44:47;;;;;;;3.10;2.50;;;10.50;99.90;;;;;;6225641;28;20041;-80
2021/12/24 02:54:13;;;;;;;3.78;2.60;;;10.70;99.90;;;;;;6241010;28;20064;-79
2021/12/24 02:57:16;;;;;;;2.92;2.72;;;10.40;99.90;;;;;;6212689;28;20059;-80
2021/12/24 03:00:20;;;;;;;3.70;2.80;;;10.50;99.90;;;;;;6227869;28;20036;-80
2021/12/24 03:03:21;;;;;;;5.35;3.08;;;10.40;99.90;;;;;;6213083;28;20040;-81
2021/12/24 03:06:30;;;;;;;3.37;2.70;;;10.30;99.90;;;;;;6212804;28;20378;-80
2021/12/24 03:09:31;;;;;;;5.38;3.35;;;10.50;99.90;;;;;;6212662;28;20060;-80
2021/12/24 03:12:32;;;;;;;3.25;2.67;;;10.50;99.90;;;;;;6228786;28;20029;-79
2021/12/24 03:15:34;;;;;;;3.85;2.83;;;10.50;99.90;;;;;;6228565;28;20120;-81
2021/12/24 03:18:36;;;;;;;3.28;2.83;;;10.40;99.90;;;;;;6228556;28;20029;-79
2021/12/24 03:21:54;;;;;;;3.25;2.95;;;10.90;99.90;;;;;;6212475;28;20034;-80
2021/12/24 03:24:55;;;;;;;3.97;2.70;;;10.50;99.90;;;;;;6216715;28;20036;-79
2021/12/24 03:27:56;;;;;;;3.40;2.80;;;10.50;99.90;;;;;;6228319;28;20383;-79
2021/12/24 03:30:56;;;;;;;5.32;2.97;;;10.40;99.90;;;;;;6227797;28;20029;-78
2021/12/24 03:33:57;;;;;;;4.80;3.40;;;10.40;99.90;;;;;;6227816;28;20065;-79
2021/12/24 03:36:57;;;;;;;2.97;2.67;;;10.70;99.90;;;;;;6219283;28;20046;-79
2021/12/24 03:39:58;;;;;;;2.60;2.40;;;10.50;99.90;;;;;;6203540;28;20065;-80
2021/12/24 03:42:58;;;;;;;3.83;2.80;;;10.50;99.90;;;;;;6219722;28;20096;-79
2021/12/24 03:46:04;;;;;;;3.10;2.80;;;10.40;99.90;;;;;;6219499;28;20049;-79
2021/12/24 03:49:14;;;;;;;4.10;2.63;;;10.50;99.90;;;;;;6211808;28;20087;-79
2021/12/24 03:55:27;;;;;;;3.97;2.60;;;10.30;99.90;;;;;;6222837;28;20026;-80
2021/12/24 03:58:28;;;;;;;3.90;2.40;;;10.10;99.90;;;;;;6186706;28;20072;-81
2021/12/24 04:01:29;;;;;;;4.05;2.90;;;;;;;;;;6219384;28;20661;-80
2021/12/24 04:04:29;;;;;;;2.92;2.53;;;10.30;99.90;;;;;;6218712;28;20076;-80
2021/12/24 04:07:31;;;;;;;3.47;2.65;;;10.30;99.90;;;;;;6191004;28;20128;-81
2021/12/24 04:10:41;;;;;;;3.70;2.60;;;10.20;99.90;;;;;;6186252;28;20033;-80
2021/12/24 04:13:41;;;;;;;3.30;2.58;;;10.20;99.90;;;;;;6237272;28;20026;-80
2021/12/24 04:16:42;;;;;;;4.18;2.42;;;10.20;99.90;;;;;;6196597;28;20460;-81
2021/12/24 04:26:21;;;;;;;3.33;2.45;;;10.10;99.90;;;;;;6220162;28;20049;-81
2021/12/24 04:29:21;;;;;;;3.00;2.67;;;10.20;99.90;;;;;;6230412;28;20033;-81
2021/12/24 04:32:33;;;;;;;3.60;2.75;;;10.10;99.90;;;;;;6218910;28;20089;-81
2021/12/24 04:35:46;;;;;;;2.60;2.20;;;10.10;99.90;;;;;;6219836;28;20079;-80
2021/12/24 04:52:00;;;;;;;3.63;2.67;;;10.00;99.90;;;;;;6234766;28;20025;-80
2021/12/24 05:01:50;;;;;;;4.80;2.30;;;10.00;99.90;;;;;;6237553;28;20029;-79
2021/12/24 05:05:03;;;;;;;3.20;2.20;;;10.00;99.90;;;;;;6251274;28;20029;-81
2021/12/24 05:08:21;;;;;;;2.90;2.45;;;9.90;99.90;;;;;;6236424;28;20036;-80
2021/12/24 05:11:22;;;;;;;3.30;2.60;;;10.00;99.90;;;;;;6231363;28;20453;-82
2021/12/24 05:14:22;;;;;;;2.83;2.50;;;9.90;99.90;;;;;;6231705;28;20025;-81
2021/12/24 05:17:45;;;;;;;3.05;2.30;;;9.90;99.90;;;;;;6231307;28;20071;-81
2021/12/24 05:24:07;;;;;;;2.78;2.42;;;10.00;99.90;;;;;;6233572;28;19913;-81
2021/12/24 05:27:07;;;;;;;2.80;2.53;;;10.20;99.90;;;;;;6214348;28;20044;-80
2021/12/24 05:30:08;;;;;;;2.75;2.50;;;9.80;99.90;;;;;;6214994;28;20038;-80
2021/12/24 05:33:12;;;;;;;5.57;3.10;;;9.80;99.90;;;;;;6214443;28;20419;-82
2021/12/24 05:36:13;;;;;;;4.03;2.50;;;;;;;;;;6221403;28;20085;-81
2021/12/24 05:39:16;;;;;;;3.67;2.67;;;;;;;;;;6254718;28;20431;-80
2021/12/24 05:42:17;;;;;;;4.00;2.78;;;9.50;99.90;;;;;;6250804;28;20017;-81
2021/12/24 05:45:18;;;;;;;3.47;2.55;;;;;;;;;;6251555;28;20052;-81
2021/12/24 05:48:19;;;;;;;2.60;2.40;;;9.50;99.90;;;;;;6254043;28;20029;-80
2021/12/24 05:51:19;;;;;;;3.13;2.40;;;9.70;99.90;;;;;;6227629;28;20057;-80
2021/12/24 05:54:20;;;;;;;3.33;2.25;;;9.70;99.90;;;;;;6213722;28;20025;-80
2021/12/24 05:57:21;;;;;;;3.75;2.72;;;9.70;99.90;;;;;;6197827;28;20037;-81
2021/12/24 06:00:22;;;;;;;3.42;2.58;;;9.70;99.90;;;;;;6213961;28;20068;-81
2021/12/24 06:03:23;;;;;;;2.65;2.40;;;9.70;99.90;;;;;;6214051;28;20033;-80
2021/12/24 06:06:23;;;;;;;3.30;2.83;;;9.60;99.90;;;;;;6213964;28;20523;-81
2021/12/24 06:09:24;;;;;;;4.10;2.78;;;9.60;99.90;;;;;;6247847;28;20128;-80
2021/12/24 06:12:25;;;;;;;4.78;3.05;;;9.50;99.90;;;;;;6225650;28;20036;-80
2021/12/24 06:15:26;;;;;;;2.70;2.45;;;9.60;99.90;;;;;;6220446;28;20064;-80
2021/12/24 06:18:29;;;;;;;4.00;2.83;;;9.50;99.90;;;;;;6237206;28;20029;-81
2021/12/24 06:21:30;;;;;;;;;;;9.50;99.90;;;;;;6238006;28;20369;-80
2021/12/24 06:24:30;;;;;;;3.22;2.85;;;9.50;99.90;;;;;;6236417;28;19919;-81
2021/12/24 06:27:31;;;;;;;3.33;3.00;;;9.50;99.90;;;;;;6235094;28;20033;-80
2021/12/24 06:30:32;;;;;;;3.15;2.60;;;9.60;99.90;;;;;;6252974;28;20476;-81
2021/12/24 06:33:32;;;;;;;3.63;2.75;;;9.60;99.90;;;;;;6220198;28;20029;-80
2021/12/24 06:36:36;;;;;;;3.30;2.90;;;9.60;99.90;;;;;;6251859;28;20131;-80
2021/12/24 06:39:37;;;;;;;3.42;2.80;;;9.50;99.90;;;;;;6237082;28;20025;-80
2021/12/24 06:42:37;;;;;;;4.13;2.95;;;9.50;99.90;;;;;;6222574;28;20068;-80
2021/12/24 06:45:38;;;;;;;4.72;3.00;;;9.50;99.90;;;;;;6195088;28;20037;-81
2021/12/24 06:48:41;;;;;;;4.18;2.70;;;9.40;99.90;;;;;;6212348;28;20056;-80
2021/12/24 06:51:41;;;;;;;3.88;2.70;;;9.40;99.90;;;;;;6232836;28;20537;-80
2021/12/24 06:54:42;;;;;;;4.95;3.03;;;9.30;99.90;;;;;;6232933;28;20061;-81
2021/12/24 06:57:43;;;;;;;4.05;2.40;;;9.30;99.90;;;;;;6212705;28;20114;-81
2021/12/24 07:00:43;;;;;;;2.80;2.53;;;9.20;99.90;;;;;;6195992;28;20065;-80
2021/12/24 07:03:44;;;;;;;3.80;2.65;;;9.20;99.90;;;;;;6228848;28;20041;-81
2021/12/24 07:06:45;;;;;;;4.50;2.65;;;9.20;99.90;;;;;;6212362;28;20100;-80
2021/12/24 07:09:46;;;;;;;5.68;2.78;;;9.10;99.90;;;;;;6228586;28;20022;-81
2021/12/24 07:12:46;;;;;;;4.25;2.67;;;9.10;99.90;;;;;;6196036;28;20025;-80
2021/12/24 07:15:47;;;;;;;4.20;2.80;;;9.10;99.90;;;;;;6228430;28;20450;-80
2021/12/24 07:18:47;;;;;;;3.58;2.78;;;9.70;99.90;;;;;;6212455;28;20033;-82
2021/12/24 07:21:48;;;;;;;5.28;3.17;;;9.00;99.90;;;;;;6228552;28;20033;-81
2021/12/24 07:24:49;;;;;;;5.30;3.13;;;9.00;99.90;;;;;;6229517;28;20183;-81
2021/12/24 07:27:49;;;;;;;4.28;2.90;;;8.90;99.90;;;;;;6215467;28;20087;-81
2021/12/24 07:30:50;;;;;;;5.25;3.35;;;9.00;99.90;;;;;;6211498;28;20021;-81
2021/12/24 07:33:51;;;;;;;5.95;3.00;;;;;;;;;;6214965;28;20032;-80
2021/12/24 07:36:51;;;;;;;3.85;2.90;;;8.90;99.90;;;;;;6236672;28;20053;-81
2021/12/24 07:39:52;;;;;;;6.75;3.13;;;8.80;99.90;;;;;;6211623;28;20049;-81
2021/12/24 07:42:54;;;;;;;6.20;3.08;;;;;;;;;;6211473;28;20048;-80
2021/12/24 07:45:55;;;;;;;;;;;8.90;99.90;;;;;;6211579;28;20064;-80
2021/12/24 07:49:01;;;;;;;6.47;3.33;;;9.30;99.90;;;;;;6230339;28;20407;-83
2021/12/24 07:52:08;;;;;;;7.93;3.75;;;;;;;;;;6216735;28;20107;-84
2021/12/24 07:55:10;;;;;;;5.13;2.80;;;;;;;;;;6212238;28;20068;-84
2021/12/24 07:58:13;;;;;;;8.10;3.47;;;9.90;99.90;;;;;;6231129;28;20025;-84
2021/12/24 08:01:14;;;;;;;3.55;3.03;;;9.80;99.90;;;;;;6234180;28;20029;-80
2021/12/24 08:04:15;;;;;;;6.68;3.80;;;;;;;;;;6210482;28;20510;-83
2021/12/24 08:07:16;;;;;;;4.50;3.03;;;9.40;99.90;;;;;;6230644;28;20412;-82
2021/12/24 08:10:17;;;;;;;5.30;3.15;;;;;;;;;;6211838;28;20029;-82
2021/12/24 08:13:19;;;;;;;3.72;2.90;;;9.30;99.90;;;;;;6227358;28;20021;-80
2021/12/24 08:16:20;;;;;;;3.45;2.92;;;9.00;99.90;;;;;;6213482;28;20029;-83
2021/12/24 08:19:21;;;;;;;3.80;2.80;;;;;;;;;;6205113;28;20086;-81
2021/12/24 08:22:21;;;;;;;3.20;2.40;;;8.80;99.90;;;;;;6267808;28;20028;-81
2021/12/24 08:25:22;;;;;;;4.43;3.20;;;8.70;99.90;;;;;;6226981;28;20038;-82
2021/12/24 08:28:23;;;;;;;3.33;3.03;;;8.90;99.90;;;;;;6195965;28;20112;-82
2021/12/24 08:31:24;;;;;;;7.32;4.30;;;8.60;99.90;;;;;;6221002;28;20550;-82
2021/12/24 08:34:24;;;;;;;3.47;3.10;;;8.60;99.90;;;;;;6211445;28;20357;-83
2021/12/24 08:37:25;;;;;;;4.70;2.80;;;8.50;99.90;;;;;;6216080;28;20057;-81
2021/12/24 08:40:26;;;;;;;3.58;2.80;;;;;;;;;;6212954;28;20030;-83
2021/12/24 08:43:26;;;;;;;3.42;2.60;;;8.60;99.90;;;;;;6205772;28;20353;-82
2021/12/24 08:46:27;;;;;;;7.00;3.58;;;;;;;;;;6188538;28;20073;-84
2021/12/24 08:49:28;;;;;;;3.92;3.20;;;8.60;99.90;;;;;;6207340;28;20029;-81
2021/12/24 08:52:29;;;;;;;4.50;2.92;;;9.50;99.90;;;;;;6208949;28;20032;-84
2021/12/24 08:55:30;;;;;;;10.15;3.28;;;;;;;;;;6208108;28;20452;-83
2021/12/24 08:58:32;;;;;;;5.40;2.70;;;8.90;99.90;;;;;;6218122;28;20539;-85
2021/12/24 09:01:33;;;;;;;4.28;2.67;;;9.30;99.90;;;;;;6187793;28;20118;-83
2021/12/24 09:04:33;;;;;;;4.10;2.90;;;9.60;99.90;;;;;;6204782;28;20635;-79
2021/12/24 09:07:34;;;;;;;2.33;2.10;;;9.50;99.90;;;;;;6201535;28;20076;-79
2021/12/24 09:10:35;;;;;;;2.90;2.60;;;9.60;99.90;;;;;;6212947;28;20026;-79
2021/12/24 09:13:35;;;;;;;3.15;2.70;;;9.20;99.90;;;;;;6188152;28;20029;-80
2021/12/24 09:16:36;;;;;;;4.45;2.47;;;9.10;99.90;;;;;;6217478;28;20022;-80
2021/12/24 09:19:44;;;;;;;3.40;2.50;;;8.70;99.90;;;;;;6201650;28;20380;-79
2021/12/24 09:22:46;;;;;;;3.95;2.72;;;8.90;99.90;;;;;;6216073;28;20053;-79
2021/12/24 09:25:47;;;;;;;;;;;9.10;99.90;;;;;;6202105;28;20037;-79
2021/12/24 09:28:48;;;;;;;3.88;2.95;;;8.80;99.90;;;;;;6217286;28;19916;-80
2021/12/24 09:31:48;;;;;;;2.95;2.65;;;8.80;99.90;;;;;;6202051;28;20495;-78
2021/12/24 09:34:49;;;;;;;6.57;4.18;;;8.70;99.90;;;;;;6201359;28;20383;-78
2021/12/24 09:37:49;;;;;;;3.05;2.75;;;9.70;99.90;;;;;;6217479;28;20086;-78
2021/12/24 09:40:50;;;;;;;4.43;3.13;;;8.80;99.90;;;;;;6217676;28;20081;-79
2021/12/24 09:43:56;;;;;;;4.00;2.60;;;8.80;99.90;;;;;;6218977;28;20052;-78
2021/12/24 09:46:57;;;;;;;5.22;3.28;;;8.90;99.90;;;;;;6201437;28;20042;-78
2021/12/24 09:49:57;;;;;;;3.15;2.40;;;8.90;99.90;;;;;;6229979;28;20045;-78
2021/12/24 09:52:58;;;;;;;3.10;2.50;;;8.70;99.90;;;;;;6223017;28;20377;-78
2021/12/24 09:55:58;;;;;;;4.10;2.70;;;8.70;99.90;;;;;;6201045;28;20029;-77
2021/12/24 09:58:59;;;;;;;2.50;2.30;;;9.00;99.90;;;;;;6217325;28;20088;-80
2021/12/24 10:02:00;;;;;;;3.53;2.70;;;9.00;99.90;;;;;;6220874;28;20025;-78
2021/12/24 10:05:00;;;;;;;4.47;2.10;;;8.80;99.90;;;;;;6205339;28;20034;-77
2021/12/24 10:08:04;;;;;;;3.35;2.63;;;9.10;99.90;;;;;;6224349;28;20068;-78
2021/12/24 10:11:08;;;;;;;4.57;2.80;;;8.90;99.90;;;;;;6189337;28;20033;-80
2021/12/24 10:14:08;;;;;;;10.82;6.90;;;8.90;99.90;;;;;;6213258;28;20503;-83
2021/12/24 10:17:15;;;;;;;29.17;16.70;;;9.00;99.90;;;;;;6208400;28;20034;-77
2021/12/24 10:20:18;;;;;;;7.03;4.20;;;9.40;99.90;;;;;;6221208;28;20133;-78
2021/12/24 10:23:41;;;;;;;4.97;2.60;;;8.90;99.90;;;;;;6219647;28;20034;-77
2021/12/24 10:26:46;;;;;;;4.72;2.90;;;8.90;99.90;;;;;;6210934;28;20033;-77
2021/12/24 10:29:46;;;;;;;4.95;2.63;;;9.00;99.90;;;;;;6224484;28;20037;-77
2021/12/24 10:32:48;;;;;;;5.25;2.92;;;;;;;;;;6229683;28;20064;-77
2021/12/24 10:36:00;;;;;;;4.10;2.25;;;9.10;99.90;;;;;;6225278;28;20044;-77
2021/12/24 10:39:01;;;;;;;4.15;2.70;;;;;;;;;;6234954;28;20084;-78
2021/12/24 10:42:12;;;;;;;3.47;2.30;;;8.80;99.90;;;;;;6246911;28;20494;-75
2021/12/24 10:45:17;;;;;;;3.03;2.72;;;9.20;99.90;;;;;;6246481;28;20116;-77
2021/12/24 10:48:20;;;;;;;2.33;2.13;;;9.20;99.90;;;;;;6245902;28;20475;-77
2021/12/24 10:51:42;;;;;;;2.97;2.60;;;9.20;99.90;;;;;;6211436;28;20037;-77
2021/12/24 10:54:54;;;;;;;3.50;2.90;;;9.40;99.90;;;;;;6244733;28;20116;-77
2021/12/24 10:57:56;;;;;;;3.15;2.60;;;9.40;99.90;;;;;;6227882;28;20038;-78
2021/12/24 11:00:58;;;;;;;;;;;9.30;99.90;;;;;;6211050;28;20033;-77
2021/12/24 11:03:58;;;;;;;3.17;2.75;;;9.30;99.90;;;;;;6244939;28;19915;-78
2021/12/24 11:06:59;;;;;;;3.50;2.42;;;9.40;99.90;;;;;;6226982;28;20037;-76
2021/12/24 11:10:06;;;;;;;8.25;4.03;;;9.30;99.90;;;;;;6227787;28;20029;-77
2021/12/24 11:13:12;;;;;;;5.65;2.95;;;9.30;99.90;;;;;;6244684;28;20411;-77
2021/12/24 11:16:32;;;;;;;2.88;2.45;;;9.30;99.90;;;;;;6228160;28;20025;-76
2021/12/24 11:19:50;;;;;;;5.32;3.22;;;9.40;99.90;;;;;;6245413;28;20061;-78
2021/12/24 11:22:55;;;;;;;20.10;8.48;;;9.50;99.90;;;;;;6245753;28;20112;-78
2021/12/24 11:26:03;;;;;;;4.65;2.60;;;9.30;99.90;;;;;;6227440;28;20088;-80
2021/12/24 11:29:03;;;;;;;3.55;2.47;;;9.80;99.90;;;;;;6245472;28;20062;-79
2021/12/24 11:32:04;;;;;;;7.15;3.50;;;9.50;99.90;;;;;;6257500;28;20478;-78
2021/12/24 11:35:05;;;;;;;4.43;2.50;;;9.50;99.90;;;;;;6219498;28;20462;-79
2021/12/24 11:38:05;;;;;;;4.28;2.30;;;9.40;99.90;;;;;;6208189;28;20046;-78
2021/12/24 11:41:11;;;;;;;4.03;2.67;;;9.50;99.90;;;;;;6227575;28;20482;-78
2021/12/24 11:44:11;;;;;;;7.60;5.40;;;9.40;99.90;;;;;;6245057;28;20427;-78
2021/12/24 11:47:12;;;;;;;15.15;9.20;;;9.70;99.90;;;;;;6211150;28;20095;-77
2021/12/24 11:50:13;;;;;;;10.15;6.22;;;9.60;99.90;;;;;;6210038;28;20033;-77
2021/12/24 11:53:15;;;;;;;3.58;2.58;;;9.40;99.90;;;;;;6243833;28;20037;-78
2021/12/24 11:56:16;;;;;;;7.30;5.63;;;9.50;99.90;;;;;;6225858;28;20079;-77
2021/12/24 11:59:18;;;;;;;5.35;3.38;;;9.40;99.90;;;;;;6244420;28;20391;-78
2021/12/24 12:02:45;;;;;;;4.60;2.53;;;9.50;99.90;;;;;;6219406;28;20076;-78
2021/12/24 12:05:46;;;;;;;4.38;3.33;;;9.40;99.90;;;;;;6239782;28;20053;-79
2021/12/24 12:08:47;;;;;;;4.65;3.63;;;9.40;99.90;;;;;;6226836;28;20125;-78
2021/12/24 12:11:58;;;;;;;4.43;2.53;;;9.40;99.90;;;;;;6226723;28;20033;-78
2021/12/24 12:15:24;;;;;;;3.15;2.70;;;9.50;99.90;;;;;;6210712;28;20361;-78
2021/12/24 12:18:33;;;;;;;3.28;2.80;;;9.40;99.90;;;;;;6209798;28;20030;-78
2021/12/24 12:21:37;;;;;;;3.33;2.80;;;9.60;99.90;;;;;;6226922;28;20031;-78
2021/12/24 12:27:44;;;;;;;4.10;2.50;;;9.40;99.90;;;;;;6238118;28;20037;-77
2021/12/24 12:30:49;;;;;;;4.93;3.13;;;9.50;99.90;;;;;;6244679;28;21167;-77
2021/12/24 12:33:49;;;;;;;4.72;3.30;;;9.50;99.90;;;;;;6226608;28;20450;-77
2021/12/24 12:36:51;;;;;;;3.53;2.70;;;9.50;99.90;;;;;;6217920;28;20056;-77
2021/12/24 12:40:13;;;;;;;4.35;2.67;;;9.50;99.90;;;;;;6218360;28;20030;-77
2021/12/24 12:43:14;;;;;;;2.40;2.20;;;9.40;99.90;;;;;;6217996;28;20494;-77
2021/12/24 12:46:42;;;;;;;3.20;2.63;;;9.50;99.90;;;;;;6237833;28;20391;-78
2021/12/24 12:49:42;;;;;;;6.78;2.60;;;9.50;99.90;;;;;;6216665;28;20049;-79
2021/12/24 12:52:43;;;;;;;4.32;2.88;;;9.60;99.90;;;;;;6216731;28;20443;-77
2021/12/24 12:55:44;;;;;;;5.90;3.17;;;9.50;99.90;;;;;;6216553;28;20113;-79
2021/12/24 12:59:09;;;;;;;5.00;3.30;;;9.40;99.90;;;;;;6218112;28;20121;-79
2021/12/24 13:02:11;;;;;;;4.00;3.47;;;9.40;99.90;;;;;;6215357;28;20144;-78
2021/12/24 13:05:12;;;;;;;4.85;3.03;;;9.40;99.90;;;;;;6219071;28;20034;-78
2021/12/24 13:08:18;;;;;;;7.57;3.38;;;9.80;99.90;;;;;;6218194;28;20050;-79
2021/12/24 13:11:20;;;;;;;7.03;4.65;;;9.50;99.90;;;;;;6186358;28;20146;-80
2021/12/24 13:14:23;;;;;;;5.50;3.47;;;9.50;99.90;;;;;;6201584;28;20172;-78
2021/12/24 13:17:25;;;;;;;5.53;3.95;;;9.40;99.90;;;;;;6202148;28;20088;-80
2021/12/24 13:22:26;;;;;;;4.32;3.63;;;9.30;99.90;;;;;;6213459;28;20388;-79
2021/12/24 13:24:10;;;;;;;26.27;15.45;;;9.50;99.90;;;;;;6218706;28;20123;-80
2021/12/24 13:27:11;;;;;;;77.53;41.92;;;;;;;;;;6215699;28;20498;-80
2021/12/24 13:30:19;;;;;;;8.27;6.43;;;9.40;99.90;;;;;;6218728;28;20022;-79
2021/12/24 13:33:20;;;;;;;4.68;3.85;;;;;;;;;;6215873;28;20033;-79
2021/12/24 13:36:25;;;;;;;5.78;4.15;;;9.60;99.90;;;;;;6227568;28;20053;-79
2021/12/24 13:39:26;;;;;;;5.32;3.63;;;;;;;;;;6230686;28;20021;-81
2021/12/24 13:42:27;;;;;;;6.45;4.25;;;9.10;99.90;;;;;;6230271;28;20033;-80
2021/12/24 13:45:32;;;;;;;7.13;5.45;;;9.60;99.90;;;;;;6214049;28;20640;-80
2021/12/24 13:48:46;;;;;;;6.95;4.35;;;9.60;99.90;;;;;;6199403;28;20045;-79
2021/12/24 13:55:19;;;;;;;5.63;4.57;;;9.60;99.90;;;;;;6247383;28;20435;-78
2021/12/24 13:58:20;;;;;;;7.70;4.47;;;9.40;99.90;;;;;;6207268;28;20047;-79
2021/12/24 14:01:25;;;;;;;7.00;4.95;;;9.50;99.90;;;;;;6213260;28;20030;-80
2021/12/24 14:04:26;;;;;;;11.55;5.50;;;9.50;99.90;;;;;;6215874;28;20550;-80
2021/12/24 14:07:27;;;;;;;10.32;6.63;;;9.50;99.90;;;;;;6201265;28;20047;-80
2021/12/24 14:10:27;;;;;;;9.00;5.47;;;9.40;99.90;;;;;;6213328;28;20434;-80
2021/12/24 14:13:31;;;;;;;10.73;6.90;;;9.40;99.90;;;;;;6197421;28;20074;-80
2021/12/24 14:22:54;;;;;;;7.55;5.18;;;9.40;99.90;;;;;;6217842;28;20036;-77
2021/12/24 14:25:56;;;;;;;11.45;6.47;;;9.10;99.90;;;;;;6237582;28;20483;-78
2021/12/24 14:28:57;;;;;;;14.18;8.15;;;9.30;99.90;;;;;;6229384;28;20083;-80
2021/12/24 14:32:04;;;;;;;8.63;5.90;;;9.30;99.90;;;;;;6213128;28;20029;-80
2021/12/24 14:35:20;;;;;;;8.77;6.13;;;9.50;99.90;;;;;;6221919;28;20029;-79
2021/12/24 14:38:24;;;;;;;11.75;7.28;;;9.50;99.90;;;;;;6229401;28;20063;-79
2021/12/24 14:41:24;;;;;;;14.68;7.80;;;9.60;99.90;;;;;;6215202;28;20474;-80
2021/12/24 14:44:29;;;;;;;11.45;8.50;;;9.40;99.90;;;;;;6229159;28;20036;-79
2021/12/24 14:47:30;;;;;;;11.55;6.70;;;9.60;99.90;;;;;;6226802;28;20080;-79
2021/12/24 14:50:33;;;;;;;8.10;5.65;;;9.60;99.90;;;;;;6212606;28;20029;-78
2021/12/24 14:53:41;;;;;;;8.65;5.70;;;9.80;99.90;;;;;;6228758;28;20068;-80
2021/12/24 14:56:42;;;;;;;23.25;12.90;;;9.60;99.90;;;;;;6226492;28;20163;-80
2021/12/24 14:59:43;;;;;;;10.60;7.32;;;9.60;99.90;;;;;;6202842;28;20033;-80
2021/12/24 15:02:46;;;;;;;9.18;5.40;;;9.60;99.90;;;;;;6246063;28;20459;-78
2021/12/24 15:05:48;;;;;;;9.20;5.47;;;9.60;99.90;;;;;;6229008;28;20071;-80
2021/12/24 15:08:49;;;;;;;7.10;5.57;;;9.70;99.90;;;;;;6235226;28;20038;-80
2021/12/24 15:11:49;;;;;;;7.85;5.20;;;9.70;99.90;;;;;;6245957;28;20694;-79
2021/12/24 15:14:52;;;;;;;8.73;5.38;;;9.80;99.90;;;;;;6212689;28;20040;-79
2021/12/24 15:17:53;;;;;;;13.85;6.88;;;9.80;99.90;;;;;;6211361;28;20063;-79
2021/12/24 15:20:54;;;;;;;11.25;6.88;;;9.90;99.90;;;;;;6208763;28;20368;-79
2021/12/24 15:23:55;;;;;;;19.98;14.90;;;9.90;99.90;;;;;;6244505;28;20033;-79
2021/12/24 15:26:55;;;;;;;8.52;6.40;;;9.80;99.90;;;;;;6211287;28;20523;-79
2021/12/24 15:29:56;;;;;;;10.20;6.28;;;9.70;99.90;;;;;;6224711;28;20076;-79
2021/12/24 15:32:57;;;;;;;8.98;6.70;;;9.80;99.90;;;;;;6252708;28;20411;-80
2021/12/24 15:35:58;;;;;;;7.07;5.15;;;9.70;99.90;;;;;;6216541;28;20051;-78
2021/12/24 15:39:00;;;;;;;8.75;6.63;;;9.70;99.90;;;;;;6249848;28;20036;-79
2021/12/24 15:42:00;;;;;;;9.30;6.63;;;9.70;99.90;;;;;;6233762;28;20025;-79
2021/12/24 15:45:02;;;;;;;6.85;5.60;;;9.80;99.90;;;;;;6244124;28;20646;-80
2021/12/24 15:48:03;;;;;;;7.47;6.00;;;9.90;99.90;;;;;;6247334;28;20025;-79
2021/12/24 15:51:07;;;;;;;7.53;6.07;;;9.60;99.90;;;;;;6227460;28;20033;-79
2021/12/24 15:54:10;;;;;;;8.80;5.50;;;9.70;99.90;;;;;;6222032;28;20026;-79
2021/12/24 15:57:10;;;;;;;8.40;5.85;;;11.70;99.90;;;;;;6244761;28;20112;-79
2021/12/24 16:00:11;;;;;;;13.25;8.77;;;9.80;99.90;;;;;;6244178;28;20521;-79
2021/12/24 16:03:12;;;;;;;11.00;8.35;;;9.80;99.90;;;;;;6227420;28;20030;-78
2021/12/24 16:06:12;;;;;;;9.93;7.38;;;9.80;99.90;;;;;;6245112;28;20041;-79
2021/12/24 16:09:14;;;;;;;8.63;6.45;;;9.80;99.90;;;;;;6227234;28;20033;-80
2021/12/24 16:12:15;;;;;;;10.60;6.45;;;9.80;99.90;;;;;;6210652;28;20403;-77
2021/12/24 16:15:16;;;;;;;7.13;5.43;;;9.80;99.90;;;;;;6230692;28;20471;-78
2021/12/24 16:18:17;;;;;;;8.10;6.03;;;9.50;99.90;;;;;;6229384;28;20139;-78
2021/12/24 16:21:18;;;;;;;7.97;5.63;;;9.90;99.90;;;;;;6225596;28;20036;-80
2021/12/24 16:24:19;;;;;;;10.85;6.22;;;10.40;99.90;;;;;;6208652;28;20927;-80
2021/12/24 16:27:19;;;;;;;10.23;7.28;;;10.10;99.90;;;;;;6212315;28;20116;-81
2021/12/24 16:30:20;;;;;;;10.23;6.63;;;10.00;99.90;;;;;;6226523;28;20468;-82
2021/12/24 16:33:21;;;;;;;9.25;5.97;;;10.10;99.90;;;;;;6193735;28;20033;-81
2021/12/24 16:36:21;;;;;;;14.50;6.18;;;9.80;99.90;;;;;;6232883;28;20051;-82
2021/12/24 16:39:22;;;;;;;9.80;6.28;;;10.00;99.90;;;;;;6209247;28;20040;-81
2021/12/24 16:42:24;;;;;;;8.20;6.50;;;;;;;;;;6224443;28;20037;-81
2021/12/24 16:45:26;;;;;;;;;;;9.90;99.90;;;;;;6208421;28;20045;-79
2021/12/24 16:48:27;;;;;;;23.50;9.75;;;;;;;;;;6228789;28;19912;-82
2021/12/24 16:51:28;;;;;;;8.65;5.25;;;10.70;99.90;;;;;;6256136;28;20071;-81
2021/12/24 16:54:28;;;;;;;5.55;4.22;;;10.30;99.90;;;;;;6192725;28;20501;-85
2021/12/24 16:57:29;;;;;;;4.80;4.13;;;;;;;;;;6233169;28;20091;-83
2021/12/24 17:00:31;;;;;;;7.63;4.85;;;;;;;;;;6245191;28;20151;-84
2021/12/24 17:03:31;;;;;;;8.48;4.47;;;10.30;99.90;;;;;;6231080;28;20026;-87
2021/12/24 17:06:32;;;;;;;6.47;4.03;;;;;;;;;;6193535;28;20573;-84
2021/12/24 17:09:33;;;;;;;5.57;4.30;;;10.10;99.90;;;;;;6209231;28;20025;-81
2021/12/24 17:12:34;;;;;;;5.20;3.50;;;10.00;99.90;;;;;;6209545;28;20037;-80
2021/12/24 17:15:35;;;;;;;4.25;3.80;;;;;;;;;;6209543;28;20467;-83
2021/12/24 17:18:35;;;;;;;11.30;5.20;;;10.00;99.90;;;;;;6226607;28;20114;-83
2021/12/24 17:21:37;;;;;;;6.97;4.45;;;10.00;99.90;;;;;;6209081;28;20715;-81
2021/12/24 17:24:38;;;;;;;6.40;4.68;;;10.00;99.90;;;;;;6211444;28;20467;-80
2021/12/24 17:27:38;;;;;;;7.43;4.63;;;10.10;99.90;;;;;;6197405;28;20774;-77
2021/12/24 17:30:39;;;;;;;5.38;4.53;;;10.00;99.90;;;;;;6208856;28;20041;-80
2021/12/24 17:33:40;;;;;;;6.13;4.38;;;10.10;99.90;;;;;;6225593;28;20045;-81
2021/12/24 17:36:40;;;;;;;8.23;5.47;;;10.10;99.90;;;;;;6210168;28;20630;-80
2021/12/24 17:39:41;;;;;;;8.02;4.68;;;9.90;99.90;;;;;;6209742;28;20452;-79
2021/12/24 17:42:42;;;;;;;6.22;4.53;;;10.20;99.90;;;;;;6208955;28;20107;-81
2021/12/24 17:45:42;;;;;;;5.60;4.47;;;10.10;99.90;;;;;;6192777;28;20047;-81
2021/12/24 17:48:44;;;;;;;7.85;5.03;;;10.70;99.90;;;;;;6200395;28;20029;-80
2021/12/24 17:51:45;;;;;;;6.40;4.70;;;10.10;99.90;;;;;;6249838;28;20076;-78
2021/12/24 17:54:46;;;;;;;6.95;5.32;;;;;;;;;;6196571;28;20443;-81